sensor_id;sensor_type;location;lat;lon;timestamp;temperature;humidity
34640;DHT22;22600;48.186;11.526;2023-03-22T00:01:07;22.60;50.30
34640;DHT22;22600;48.186;11.526;2023-03-22T00:03:33;22.60;50.30
34640;DHT22;22600;48.186;11.526;2023-03-22T00:05:58;22.60;50.30
34640;DHT22;22600;48.186;11.526;2023-03-22T00:08:24;22.60;50.30
34640;DHT22;22600;48.186;11.526;2023-03-22T00:10:49;22.60;50.40
34640;DHT22;22600;48.186;11.526;2023-03-22T00:13:15;22.60;50.40
34640;DHT22;22600;48.186;11.526;2023-03-22T00:15:41;22.60;50.40
34640;DHT22;22600;48.186;11.526;2023-03-22T00:18:09;22.60;50.40
34640;DHT22;22600;48.186;11.526;2023-03-22T00:20:36;22.60;50.40
34640;DHT22;22600;48.186;11.526;2023-03-22T00:23:03;22.60;50.40
34640;DHT22;22600;48.186;11.526;2023-03-22T00:25:29;22.60;50.50
34640;DHT22;22600;48.186;11.526;2023-03-22T00:27:54;22.60;50.50
34640;DHT22;22600;48.186;11.526;2023-03-22T00:30:20;22.60;50.50
34640;DHT22;22600;48.186;11.526;2023-03-22T00:32:45;22.60;50.50
34640;DHT22;22600;48.186;11.526;2023-03-22T00:35:11;22.60;50.60
34640;DHT22;22600;48.186;11.526;2023-03-22T00:37:37;22.50;50.50
34640;DHT22;22600;48.186;11.526;2023-03-22T00:40:06;22.60;50.60
34640;DHT22;22600;48.186;11.526;2023-03-22T00:42:35;22.60;50.60
34640;DHT22;22600;48.186;11.526;2023-03-22T00:45:01;22.60;50.60
34640;DHT22;22600;48.186;11.526;2023-03-22T00:47:26;22.60;50.60
34640;DHT22;22600;48.186;11.526;2023-03-22T00:49:52;22.60;50.20
34640;DHT22;22600;48.186;11.526;2023-03-22T00:52:17;22.60;50.70
34640;DHT22;22600;48.186;11.526;2023-03-22T00:54:43;22.60;50.70
34640;DHT22;22600;48.186;11.526;2023-03-22T00:57:08;22.60;50.70
34640;DHT22;22600;48.186;11.526;2023-03-22T00:59:34;22.60;50.70
34640;DHT22;22600;48.186;11.526;2023-03-22T01:02:03;22.60;50.70
34640;DHT22;22600;48.186;11.526;2023-03-22T01:04:29;22.60;50.70
34640;DHT22;22600;48.186;11.526;2023-03-22T01:06:55;22.60;50.70
34640;DHT22;22600;48.186;11.526;2023-03-22T01:09:25;25.20;52.00
34640;DHT22;22600;48.186;11.526;2023-03-22T01:11:54;22.60;50.80
34640;DHT22;22600;48.186;11.526;2023-03-22T01:14:21;22.60;50.80
34640;DHT22;22600;48.186;11.526;2023-03-22T01:16:46;22.60;50.70
34640;DHT22;22600;48.186;11.526;2023-03-22T01:19:12;22.60;50.80
34640;DHT22;22600;48.186;11.526;2023-03-22T01:21:37;22.60;50.80
34640;DHT22;22600;48.186;11.526;2023-03-22T01:24:03;22.60;50.90
34640;DHT22;22600;48.186;11.526;2023-03-22T01:26:28;22.50;50.90
34640;DHT22;22600;48.186;11.526;2023-03-22T01:28:54;22.60;50.90
34640;DHT22;22600;48.186;11.526;2023-03-22T01:31:19;22.60;50.90
34640;DHT22;22600;48.186;11.526;2023-03-22T01:33:45;22.60;50.90
34640;DHT22;22600;48.186;11.526;2023-03-22T01:36:10;22.60;50.90
34640;DHT22;22600;48.186;11.526;2023-03-22T01:38:35;22.60;50.90
34640;DHT22;22600;48.186;11.526;2023-03-22T01:41:01;22.60;50.90
34640;DHT22;22600;48.186;11.526;2023-03-22T01:43:26;22.60;50.90
34640;DHT22;22600;48.186;11.526;2023-03-22T01:45:52;22.60;50.90
34640;DHT22;22600;48.186;11.526;2023-03-22T01:48:20;22.50;50.80
34640;DHT22;22600;48.186;11.526;2023-03-22T01:50:53;22.60;50.90
34640;DHT22;22600;48.186;11.526;2023-03-22T01:53:21;22.60;50.90
34640;DHT22;22600;48.186;11.526;2023-03-22T01:55:49;22.60;50.90
34640;DHT22;22600;48.186;11.526;2023-03-22T01:58:15;22.60;50.90
34640;DHT22;22600;48.186;11.526;2023-03-22T02:00:42;22.60;50.90
34640;DHT22;22600;48.186;11.526;2023-03-22T02:03:09;22.60;50.90
34640;DHT22;22600;48.186;11.526;2023-03-22T02:05:35;22.60;51.00
34640;DHT22;22600;48.186;11.526;2023-03-22T02:08:01;22.60;51.00
34640;DHT22;22600;48.186;11.526;2023-03-22T02:10:27;22.60;51.00
34640;DHT22;22600;48.186;11.526;2023-03-22T02:15:37;22.60;51.00
34640;DHT22;22600;48.186;11.526;2023-03-22T02:18:12;22.60;51.00
34640;DHT22;22600;48.186;11.526;2023-03-22T02:26:06;22.60;51.00
34640;DHT22;22600;48.186;11.526;2023-03-22T02:31:45;25.60;52.60
34640;DHT22;22600;48.186;11.526;2023-03-22T02:34:33;22.60;51.10
34640;DHT22;22600;48.186;11.526;2023-03-22T02:44:45;22.60;51.10
34640;DHT22;22600;48.186;11.526;2023-03-22T02:50:01;22.60;51.10
34640;DHT22;22600;48.186;11.526;2023-03-22T02:52:31;24.80;52.20
34640;DHT22;22600;48.186;11.526;2023-03-22T02:55:00;22.60;51.10
34640;DHT22;22600;48.186;11.526;2023-03-22T02:57:35;22.60;51.20
34640;DHT22;22600;48.186;11.526;2023-03-22T03:00:03;22.60;51.20
34640;DHT22;22600;48.186;11.526;2023-03-22T03:02:34;22.60;51.20
34640;DHT22;22600;48.186;11.526;2023-03-22T03:05:00;22.60;51.20
34640;DHT22;22600;48.186;11.526;2023-03-22T03:07:26;22.60;51.20
34640;DHT22;22600;48.186;11.526;2023-03-22T03:09:53;22.60;51.20
34640;DHT22;22600;48.186;11.526;2023-03-22T03:12:20;22.60;51.20
34640;DHT22;22600;48.186;11.526;2023-03-22T03:14:45;22.60;51.20
34640;DHT22;22600;48.186;11.526;2023-03-22T03:27:49;22.60;51.30
34640;DHT22;22600;48.186;11.526;2023-03-22T03:30:20;22.60;51.30
34640;DHT22;22600;48.186;11.526;2023-03-22T03:32:50;22.60;51.30
34640;DHT22;22600;48.186;11.526;2023-03-22T03:35:21;22.60;51.30
34640;DHT22;22600;48.186;11.526;2023-03-22T03:37:49;24.30;52.10
34640;DHT22;22600;48.186;11.526;2023-03-22T03:40:18;22.60;51.30
34640;DHT22;22600;48.186;11.526;2023-03-22T03:42:46;22.60;51.30
34640;DHT22;22600;48.186;11.526;2023-03-22T03:45:13;22.60;51.30
34640;DHT22;22600;48.186;11.526;2023-03-22T03:47:39;22.60;51.30
34640;DHT22;22600;48.186;11.526;2023-03-22T03:50:06;22.60;51.30
34640;DHT22;22600;48.186;11.526;2023-03-22T03:52:33;22.60;51.30
34640;DHT22;22600;48.186;11.526;2023-03-22T03:54:58;24.30;52.20
34640;DHT22;22600;48.186;11.526;2023-03-22T03:57:24;22.60;51.30
34640;DHT22;22600;48.186;11.526;2023-03-22T03:59:49;22.60;51.30
34640;DHT22;22600;48.186;11.526;2023-03-22T04:02:15;22.60;51.30
34640;DHT22;22600;48.186;11.526;2023-03-22T04:04:41;22.60;51.40
34640;DHT22;22600;48.186;11.526;2023-03-22T04:07:06;22.60;51.40
34640;DHT22;22600;48.186;11.526;2023-03-22T04:09:33;22.60;51.40
34640;DHT22;22600;48.186;11.526;2023-03-22T04:11:59;22.60;51.40
34640;DHT22;22600;48.186;11.526;2023-03-22T04:14:25;22.60;51.40
34640;DHT22;22600;48.186;11.526;2023-03-22T04:16:51;22.60;51.40
34640;DHT22;22600;48.186;11.526;2023-03-22T04:19:16;22.60;51.40
34640;DHT22;22600;48.186;11.526;2023-03-22T04:21:42;22.60;51.40
34640;DHT22;22600;48.186;11.526;2023-03-22T04:24:08;22.60;51.40
34640;DHT22;22600;48.186;11.526;2023-03-22T04:26:33;22.60;51.40
34640;DHT22;22600;48.186;11.526;2023-03-22T04:28:59;22.60;51.40
34640;DHT22;22600;48.186;11.526;2023-03-22T04:31:26;22.60;51.40
34640;DHT22;22600;48.186;11.526;2023-03-22T04:33:52;22.70;51.50
34640;DHT22;22600;48.186;11.526;2023-03-22T04:36:21;22.60;51.40
34640;DHT22;22600;48.186;11.526;2023-03-22T04:38:47;22.60;51.40
34640;DHT22;22600;48.186;11.526;2023-03-22T04:41:12;22.60;51.40
34640;DHT22;22600;48.186;11.526;2023-03-22T04:43:37;22.60;51.40
34640;DHT22;22600;48.186;11.526;2023-03-22T04:46:07;23.80;52.00
34640;DHT22;22600;48.186;11.526;2023-03-22T04:48:37;22.60;51.40
34640;DHT22;22600;48.186;11.526;2023-03-22T04:51:04;22.60;51.40
34640;DHT22;22600;48.186;11.526;2023-03-22T04:53:29;22.60;51.40
34640;DHT22;22600;48.186;11.526;2023-03-22T04:55:55;22.60;51.40
34640;DHT22;22600;48.186;11.526;2023-03-22T04:58:24;22.60;51.50
34640;DHT22;22600;48.186;11.526;2023-03-22T05:00:50;22.60;51.50
34640;DHT22;22600;48.186;11.526;2023-03-22T05:03:18;23.00;51.70
34640;DHT22;22600;48.186;11.526;2023-03-22T05:05:48;22.60;51.50
34640;DHT22;22600;48.186;11.526;2023-03-22T05:08:15;22.60;51.50
34640;DHT22;22600;48.186;11.526;2023-03-22T05:10:40;22.60;51.50
34640;DHT22;22600;48.186;11.526;2023-03-22T05:13:05;22.60;51.50
34640;DHT22;22600;48.186;11.526;2023-03-22T05:15:31;22.70;51.60
34640;DHT22;22600;48.186;11.526;2023-03-22T05:17:56;22.60;51.50
34640;DHT22;22600;48.186;11.526;2023-03-22T05:20:22;22.80;51.60
34640;DHT22;22600;48.186;11.526;2023-03-22T05:22:49;22.60;51.50
34640;DHT22;22600;48.186;11.526;2023-03-22T05:25:14;22.60;51.50
34640;DHT22;22600;48.186;11.526;2023-03-22T05:27:40;22.60;51.50
34640;DHT22;22600;48.186;11.526;2023-03-22T05:30:05;22.60;51.50
34640;DHT22;22600;48.186;11.526;2023-03-22T05:32:31;22.60;51.60
34640;DHT22;22600;48.186;11.526;2023-03-22T05:34:57;22.70;51.60
34640;DHT22;22600;48.186;11.526;2023-03-22T05:37:22;22.60;51.60
34640;DHT22;22600;48.186;11.526;2023-03-22T05:39:48;22.60;51.60
34640;DHT22;22600;48.186;11.526;2023-03-22T05:42:13;22.60;51.60
34640;DHT22;22600;48.186;11.526;2023-03-22T05:44:38;22.60;51.60
34640;DHT22;22600;48.186;11.526;2023-03-22T05:47:04;22.60;51.60
34640;DHT22;22600;48.186;11.526;2023-03-22T05:49:31;22.60;51.60
34640;DHT22;22600;48.186;11.526;2023-03-22T05:51:56;22.60;51.60
34640;DHT22;22600;48.186;11.526;2023-03-22T05:54:22;25.30;53.00
34640;DHT22;22600;48.186;11.526;2023-03-22T05:56:47;22.70;51.70
34640;DHT22;22600;48.186;11.526;2023-03-22T05:59:13;22.60;51.60
34640;DHT22;22600;48.186;11.526;2023-03-22T06:01:38;22.60;51.70
34640;DHT22;22600;48.186;11.526;2023-03-22T06:04:04;22.70;51.70
34640;DHT22;22600;48.186;11.526;2023-03-22T06:06:29;22.60;51.60
34640;DHT22;22600;48.186;11.526;2023-03-22T06:08:55;22.60;51.60
34640;DHT22;22600;48.186;11.526;2023-03-22T06:11:20;22.60;51.70
34640;DHT22;22600;48.186;11.526;2023-03-22T06:13:46;22.70;51.70
34640;DHT22;22600;48.186;11.526;2023-03-22T06:16:12;22.60;51.30
34640;DHT22;22600;48.186;11.526;2023-03-22T06:18:38;22.60;50.90
34640;DHT22;22600;48.186;11.526;2023-03-22T06:21:03;22.50;50.80
34640;DHT22;22600;48.186;11.526;2023-03-22T06:23:29;22.60;50.80
34640;DHT22;22600;48.186;11.526;2023-03-22T06:25:54;22.80;51.00
34640;DHT22;22600;48.186;11.526;2023-03-22T06:28:20;22.60;50.90
34640;DHT22;22600;48.186;11.526;2023-03-22T06:30:45;22.60;50.90
34640;DHT22;22600;48.186;11.526;2023-03-22T06:33:11;22.60;51.00
34640;DHT22;22600;48.186;11.526;2023-03-22T06:35:36;22.60;50.90
34640;DHT22;22600;48.186;11.526;2023-03-22T06:38:02;22.60;50.90
34640;DHT22;22600;48.186;11.526;2023-03-22T06:40:27;22.60;51.00
34640;DHT22;22600;48.186;11.526;2023-03-22T06:42:53;22.70;51.00
34640;DHT22;22600;48.186;11.526;2023-03-22T06:45:19;22.70;51.60
34640;DHT22;22600;48.186;11.526;2023-03-22T06:47:45;22.70;51.00
34640;DHT22;22600;48.186;11.526;2023-03-22T06:50:10;22.70;50.90
34640;DHT22;22600;48.186;11.526;2023-03-22T06:52:36;22.70;51.00
34640;DHT22;22600;48.186;11.526;2023-03-22T06:55:02;22.80;51.00
34640;DHT22;22600;48.186;11.526;2023-03-22T06:57:27;22.70;51.00
34640;DHT22;22600;48.186;11.526;2023-03-22T06:59:52;22.80;51.00
34640;DHT22;22600;48.186;11.526;2023-03-22T07:02:18;22.80;51.00
34640;DHT22;22600;48.186;11.526;2023-03-22T07:04:44;25.20;52.10
34640;DHT22;22600;48.186;11.526;2023-03-22T07:07:10;22.80;51.00
34640;DHT22;22600;48.186;11.526;2023-03-22T07:09:35;22.80;51.00
34640;DHT22;22600;48.186;11.526;2023-03-22T07:12:01;22.80;51.00
34640;DHT22;22600;48.186;11.526;2023-03-22T07:14:27;22.80;51.00
34640;DHT22;22600;48.186;11.526;2023-03-22T07:16:52;22.90;51.00
34640;DHT22;22600;48.186;11.526;2023-03-22T07:19:18;22.90;51.00
34640;DHT22;22600;48.186;11.526;2023-03-22T07:21:43;22.80;50.90
34640;DHT22;22600;48.186;11.526;2023-03-22T07:24:08;22.90;50.90
34640;DHT22;22600;48.186;11.526;2023-03-22T07:26:37;22.90;50.90
34640;DHT22;22600;48.186;11.526;2023-03-22T07:29:02;22.90;50.90
34640;DHT22;22600;48.186;11.526;2023-03-22T07:31:28;23.00;50.90
34640;DHT22;22600;48.186;11.526;2023-03-22T07:33:53;23.00;50.90
34640;DHT22;22600;48.186;11.526;2023-03-22T07:36:19;23.00;50.90
34640;DHT22;22600;48.186;11.526;2023-03-22T07:38:50;23.00;50.90
34640;DHT22;22600;48.186;11.526;2023-03-22T07:41:15;22.90;50.80
34640;DHT22;22600;48.186;11.526;2023-03-22T07:43:42;23.00;50.90
34640;DHT22;22600;48.186;11.526;2023-03-22T07:46:07;23.00;50.90
34640;DHT22;22600;48.186;11.526;2023-03-22T07:48:33;23.20;51.00
34640;DHT22;22600;48.186;11.526;2023-03-22T07:50:58;23.00;51.40
34640;DHT22;22600;48.186;11.526;2023-03-22T07:53:24;23.00;50.80
34640;DHT22;22600;48.186;11.526;2023-03-22T07:55:49;23.00;50.80
34640;DHT22;22600;48.186;11.526;2023-03-22T07:58:15;23.00;50.80
34640;DHT22;22600;48.186;11.526;2023-03-22T08:00:40;23.00;50.80
34640;DHT22;22600;48.186;11.526;2023-03-22T08:03:06;23.10;50.80
34640;DHT22;22600;48.186;11.526;2023-03-22T08:05:31;23.10;50.80
34640;DHT22;22600;48.186;11.526;2023-03-22T08:07:57;23.10;50.80
34640;DHT22;22600;48.186;11.526;2023-03-22T08:10:22;26.50;52.70
34640;DHT22;22600;48.186;11.526;2023-03-22T08:12:48;23.10;50.80
34640;DHT22;22600;48.186;11.526;2023-03-22T08:15:13;23.10;50.80
34640;DHT22;22600;48.186;11.526;2023-03-22T08:17:39;23.20;50.80
34640;DHT22;22600;48.186;11.526;2023-03-22T08:20:04;20.30;49.30
34640;DHT22;22600;48.186;11.526;2023-03-22T08:22:33;23.20;50.80
34640;DHT22;22600;48.186;11.526;2023-03-22T08:24:59;23.20;50.70
34640;DHT22;22600;48.186;11.526;2023-03-22T08:27:25;26.10;52.30
34640;DHT22;22600;48.186;11.526;2023-03-22T08:29:50;23.20;50.70
34640;DHT22;22600;48.186;11.526;2023-03-22T08:32:16;23.30;50.70
34640;DHT22;22600;48.186;11.526;2023-03-22T08:34:41;23.30;50.70
34640;DHT22;22600;48.186;11.526;2023-03-22T08:37:08;23.30;50.70
34640;DHT22;22600;48.186;11.526;2023-03-22T08:39:33;23.20;50.60
34640;DHT22;22600;48.186;11.526;2023-03-22T08:41:59;23.30;50.60
34640;DHT22;22600;48.186;11.526;2023-03-22T08:44:24;23.30;50.60
34640;DHT22;22600;48.186;11.526;2023-03-22T08:46:50;23.30;50.60
34640;DHT22;22600;48.186;11.526;2023-03-22T08:49:16;23.30;50.60
34640;DHT22;22600;48.186;11.526;2023-03-22T08:51:41;23.30;50.60
34640;DHT22;22600;48.186;11.526;2023-03-22T08:54:07;23.30;50.60
34640;DHT22;22600;48.186;11.526;2023-03-22T08:56:32;23.30;50.50
34640;DHT22;22600;48.186;11.526;2023-03-22T08:59:03;23.30;50.50
34640;DHT22;22600;48.186;11.526;2023-03-22T09:01:28;23.30;50.40
34640;DHT22;22600;48.186;11.526;2023-03-22T09:03:54;23.30;50.40
34640;DHT22;22600;48.186;11.526;2023-03-22T09:06:19;23.40;50.50
34640;DHT22;22600;48.186;11.526;2023-03-22T09:08:45;23.40;50.50
34640;DHT22;22600;48.186;11.526;2023-03-22T09:11:11;23.40;50.50
34640;DHT22;22600;48.186;11.526;2023-03-22T09:13:37;23.40;50.40
34640;DHT22;22600;48.186;11.526;2023-03-22T09:16:03;23.40;50.40
34640;DHT22;22600;48.186;11.526;2023-03-22T09:18:29;25.30;51.40
34640;DHT22;22600;48.186;11.526;2023-03-22T09:20:55;23.40;50.40
34640;DHT22;22600;48.186;11.526;2023-03-22T09:23:20;23.40;50.40
34640;DHT22;22600;48.186;11.526;2023-03-22T09:25:46;23.40;51.00
34640;DHT22;22600;48.186;11.526;2023-03-22T09:28:12;23.40;50.40
34640;DHT22;22600;48.186;11.526;2023-03-22T09:30:37;23.40;50.40
34640;DHT22;22600;48.186;11.526;2023-03-22T09:33:03;23.40;50.40
34640;DHT22;22600;48.186;11.526;2023-03-22T09:35:29;23.40;50.30
34640;DHT22;22600;48.186;11.526;2023-03-22T09:37:56;19.50;48.50
34640;DHT22;22600;48.186;11.526;2023-03-22T09:40:26;23.40;50.40
34640;DHT22;22600;48.186;11.526;2023-03-22T09:42:53;23.40;50.40
34640;DHT22;22600;48.186;11.526;2023-03-22T09:45:21;23.40;50.40
34640;DHT22;22600;48.186;11.526;2023-03-22T09:47:50;23.40;50.40
34640;DHT22;22600;48.186;11.526;2023-03-22T09:50:20;23.40;50.40
34640;DHT22;22600;48.186;11.526;2023-03-22T09:52:47;23.40;50.40
34640;DHT22;22600;48.186;11.526;2023-03-22T09:55:16;23.40;50.40
34640;DHT22;22600;48.186;11.526;2023-03-22T09:57:42;23.40;50.40
34640;DHT22;22600;48.186;11.526;2023-03-22T10:00:22;23.50;50.40
34640;DHT22;22600;48.186;11.526;2023-03-22T10:02:56;23.40;50.40
34640;DHT22;22600;48.186;11.526;2023-03-22T10:05:40;23.40;50.40
34640;DHT22;22600;48.186;11.526;2023-03-22T10:10:39;23.40;50.40
34640;DHT22;22600;48.186;11.526;2023-03-22T10:15:33;23.40;50.50
34640;DHT22;22600;48.186;11.526;2023-03-22T10:18:01;23.40;50.50
34640;DHT22;22600;48.186;11.526;2023-03-22T10:20:30;23.40;50.50
34640;DHT22;22600;48.186;11.526;2023-03-22T10:22:56;23.40;50.50
34640;DHT22;22600;48.186;11.526;2023-03-22T10:25:27;23.40;50.50
34640;DHT22;22600;48.186;11.526;2023-03-22T10:27:55;23.40;50.50
34640;DHT22;22600;48.186;11.526;2023-03-22T10:30:24;23.40;50.60
34640;DHT22;22600;48.186;11.526;2023-03-22T10:32:51;23.40;50.50
34640;DHT22;22600;48.186;11.526;2023-03-22T10:35:20;23.40;50.60
34640;DHT22;22600;48.186;11.526;2023-03-22T10:37:46;23.40;50.60
34640;DHT22;22600;48.186;11.526;2023-03-22T10:40:19;23.40;50.60
34640;DHT22;22600;48.186;11.526;2023-03-22T10:43:09;23.40;50.60
34640;DHT22;22600;48.186;11.526;2023-03-22T10:45:31;23.40;50.60
34640;DHT22;22600;48.186;11.526;2023-03-22T10:48:22;23.40;50.60
34640;DHT22;22600;48.186;11.526;2023-03-22T10:50:43;23.40;50.60
34640;DHT22;22600;48.186;11.526;2023-03-22T10:55:38;23.40;50.60
34640;DHT22;22600;48.186;11.526;2023-03-22T10:58:17;23.40;50.70
34640;DHT22;22600;48.186;11.526;2023-03-22T11:00:53;23.40;50.70
34640;DHT22;22600;48.186;11.526;2023-03-22T11:06:26;23.40;51.40
34640;DHT22;22600;48.186;11.526;2023-03-22T11:08:50;23.30;50.80
34640;DHT22;22600;48.186;11.526;2023-03-22T11:16:29;23.30;50.90
34640;DHT22;22600;48.186;11.526;2023-03-22T11:18:55;23.30;50.90
34640;DHT22;22600;48.186;11.526;2023-03-22T11:21:23;23.30;51.00
34640;DHT22;22600;48.186;11.526;2023-03-22T11:23:54;23.30;51.00
34640;DHT22;22600;48.186;11.526;2023-03-22T11:26:26;23.30;51.10
34640;DHT22;22600;48.186;11.526;2023-03-22T11:28:52;23.30;51.10
34640;DHT22;22600;48.186;11.526;2023-03-22T11:31:24;23.30;51.10
34640;DHT22;22600;48.186;11.526;2023-03-22T11:33:54;23.30;51.10
34640;DHT22;22600;48.186;11.526;2023-03-22T11:36:20;23.30;51.10
34640;DHT22;22600;48.186;11.526;2023-03-22T11:38:45;23.30;51.20
34640;DHT22;22600;48.186;11.526;2023-03-22T11:41:13;23.30;51.20
34640;DHT22;22600;48.186;11.526;2023-03-22T11:43:48;23.30;51.20
34640;DHT22;22600;48.186;11.526;2023-03-22T11:46:16;23.30;51.20
34640;DHT22;22600;48.186;11.526;2023-03-22T11:48:44;23.30;51.30
34640;DHT22;22600;48.186;11.526;2023-03-22T11:51:11;23.30;51.30
34640;DHT22;22600;48.186;11.526;2023-03-22T11:53:37;23.30;51.30
34640;DHT22;22600;48.186;11.526;2023-03-22T11:56:03;23.30;51.30
34640;DHT22;22600;48.186;11.526;2023-03-22T12:01:00;23.30;51.40
34640;DHT22;22600;48.186;11.526;2023-03-22T12:03:29;23.20;51.40
34640;DHT22;22600;48.186;11.526;2023-03-22T12:06:00;23.20;51.40
34640;DHT22;22600;48.186;11.526;2023-03-22T12:08:32;23.20;51.40
34640;DHT22;22600;48.186;11.526;2023-03-22T12:11:05;23.20;51.40
34640;DHT22;22600;48.186;11.526;2023-03-22T12:13:40;23.20;51.50
34640;DHT22;22600;48.186;11.526;2023-03-22T12:16:08;23.30;51.50
34640;DHT22;22600;48.186;11.526;2023-03-22T12:18:43;23.60;51.70
34640;DHT22;22600;48.186;11.526;2023-03-22T12:21:11;23.20;51.50
34640;DHT22;22600;48.186;11.526;2023-03-22T12:23:36;23.30;51.60
34640;DHT22;22600;48.186;11.526;2023-03-22T12:28:51;23.20;51.50
34640;DHT22;22600;48.186;11.526;2023-03-22T12:31:19;23.20;51.60
34640;DHT22;22600;48.186;11.526;2023-03-22T12:33:47;23.20;51.60
34640;DHT22;22600;48.186;11.526;2023-03-22T12:36:14;23.20;51.60
34640;DHT22;22600;48.186;11.526;2023-03-22T12:41:45;23.20;51.60
34640;DHT22;22600;48.186;11.526;2023-03-22T12:44:02;23.20;51.70
34640;DHT22;22600;48.186;11.526;2023-03-22T12:46:34;23.20;51.70
34640;DHT22;22600;48.186;11.526;2023-03-22T12:49:10;23.20;51.70
34640;DHT22;22600;48.186;11.526;2023-03-22T12:51:39;23.20;51.70
34640;DHT22;22600;48.186;11.526;2023-03-22T12:54:08;23.20;51.70
34640;DHT22;22600;48.186;11.526;2023-03-22T12:56:37;23.30;51.70
34640;DHT22;22600;48.186;11.526;2023-03-22T12:59:03;23.30;51.70
34640;DHT22;22600;48.186;11.526;2023-03-22T13:01:43;23.30;51.70
34640;DHT22;22600;48.186;11.526;2023-03-22T13:06:57;23.20;51.70
34640;DHT22;22600;48.186;11.526;2023-03-22T13:09:45;23.30;51.80
34640;DHT22;22600;48.186;11.526;2023-03-22T13:19:59;23.20;51.80
34640;DHT22;22600;48.186;11.526;2023-03-22T13:27:56;23.30;51.90
34640;DHT22;22600;48.186;11.526;2023-03-22T13:30:27;23.30;51.90
34640;DHT22;22600;48.186;11.526;2023-03-22T13:32:56;23.30;52.00
34640;DHT22;22600;48.186;11.526;2023-03-22T13:35:26;23.20;52.00
34640;DHT22;22600;48.186;11.526;2023-03-22T13:37:53;23.30;52.00
34640;DHT22;22600;48.186;11.526;2023-03-22T13:40:27;23.30;52.00
34640;DHT22;22600;48.186;11.526;2023-03-22T13:43:06;23.30;52.00
34640;DHT22;22600;48.186;11.526;2023-03-22T13:45:33;23.30;52.00
34640;DHT22;22600;48.186;11.526;2023-03-22T13:48:02;23.30;52.00
34640;DHT22;22600;48.186;11.526;2023-03-22T13:50:28;23.30;52.00
34640;DHT22;22600;48.186;11.526;2023-03-22T13:52:58;23.20;51.90
34640;DHT22;22600;48.186;11.526;2023-03-22T13:55:40;23.30;52.00
34640;DHT22;22600;48.186;11.526;2023-03-22T13:58:52;23.30;52.00
34640;DHT22;22600;48.186;11.526;2023-03-22T14:00:53;23.30;52.00
34640;DHT22;22600;48.186;11.526;2023-03-22T14:03:21;23.30;52.00
34640;DHT22;22600;48.186;11.526;2023-03-22T14:05:48;23.30;52.00
34640;DHT22;22600;48.186;11.526;2023-03-22T14:08:22;23.40;52.00
34640;DHT22;22600;48.186;11.526;2023-03-22T14:10:51;23.30;52.00
34640;DHT22;22600;48.186;11.526;2023-03-22T14:13:22;23.30;52.00
34640;DHT22;22600;48.186;11.526;2023-03-22T14:15:50;23.20;51.90
34640;DHT22;22600;48.186;11.526;2023-03-22T14:18:30;23.20;51.90
34640;DHT22;22600;48.186;11.526;2023-03-22T14:21:00;23.30;52.00
34640;DHT22;22600;48.186;11.526;2023-03-22T14:23:27;23.20;52.00
34640;DHT22;22600;48.186;11.526;2023-03-22T14:26:06;23.30;52.00
34640;DHT22;22600;48.186;11.526;2023-03-22T14:28:33;23.20;52.00
34640;DHT22;22600;48.186;11.526;2023-03-22T14:30:59;23.10;52.00
34640;DHT22;22600;48.186;11.526;2023-03-22T14:33:25;23.20;52.10
34640;DHT22;22600;48.186;11.526;2023-03-22T14:35:54;23.30;52.10
34640;DHT22;22600;48.186;11.526;2023-03-22T14:38:22;23.30;52.10
34640;DHT22;22600;48.186;11.526;2023-03-22T14:41:05;23.40;52.20
34640;DHT22;22600;48.186;11.526;2023-03-22T14:43:30;23.30;52.20
34640;DHT22;22600;48.186;11.526;2023-03-22T14:46:00;23.20;52.10
34640;DHT22;22600;48.186;11.526;2023-03-22T14:48:28;23.30;52.20
34640;DHT22;22600;48.186;11.526;2023-03-22T14:50:55;27.10;54.30
34640;DHT22;22600;48.186;11.526;2023-03-22T14:53:42;23.20;52.20
34640;DHT22;22600;48.186;11.526;2023-03-22T14:56:09;23.30;52.10
34640;DHT22;22600;48.186;11.526;2023-03-22T14:58:36;23.30;52.10
34640;DHT22;22600;48.186;11.526;2023-03-22T15:01:06;23.20;52.20
34640;DHT22;22600;48.186;11.526;2023-03-22T15:03:32;23.30;52.20
34640;DHT22;22600;48.186;11.526;2023-03-22T15:05:58;23.20;52.20
34640;DHT22;22600;48.186;11.526;2023-03-22T15:08:25;23.30;52.20
34640;DHT22;22600;48.186;11.526;2023-03-22T15:10:53;23.30;52.20
34640;DHT22;22600;48.186;11.526;2023-03-22T15:13:20;23.20;52.10
34640;DHT22;22600;48.186;11.526;2023-03-22T15:15:45;23.20;52.20
34640;DHT22;22600;48.186;11.526;2023-03-22T15:18:13;23.40;52.30
34640;DHT22;22600;48.186;11.526;2023-03-22T15:20:39;23.20;52.20
34640;DHT22;22600;48.186;11.526;2023-03-22T15:23:08;23.20;52.20
34640;DHT22;22600;48.186;11.526;2023-03-22T15:25:37;23.40;52.30
34640;DHT22;22600;48.186;11.526;2023-03-22T15:28:05;23.30;52.30
34640;DHT22;22600;48.186;11.526;2023-03-22T15:30:31;23.30;52.30
34640;DHT22;22600;48.186;11.526;2023-03-22T15:33:07;23.20;52.20
34640;DHT22;22600;48.186;11.526;2023-03-22T15:35:33;23.30;52.30
34640;DHT22;22600;48.186;11.526;2023-03-22T15:37:59;23.20;52.20
34640;DHT22;22600;48.186;11.526;2023-03-22T15:40:40;25.90;53.60
34640;DHT22;22600;48.186;11.526;2023-03-22T15:43:17;25.30;53.20
34640;DHT22;22600;48.186;11.526;2023-03-22T15:48:28;23.20;52.20
34640;DHT22;22600;48.186;11.526;2023-03-22T15:50:54;23.20;52.20
34640;DHT22;22600;48.186;11.526;2023-03-22T15:53:28;23.20;52.20
34640;DHT22;22600;48.186;11.526;2023-03-22T15:55:54;23.20;52.20
34640;DHT22;22600;48.186;11.526;2023-03-22T15:58:27;23.20;52.30
34640;DHT22;22600;48.186;11.526;2023-03-22T16:00:54;23.20;52.50
34640;DHT22;22600;48.186;11.526;2023-03-22T16:03:20;23.10;52.40
34640;DHT22;22600;48.186;11.526;2023-03-22T16:05:46;23.30;52.40
34640;DHT22;22600;48.186;11.526;2023-03-22T16:08:12;23.20;52.30
34640;DHT22;22600;48.186;11.526;2023-03-22T16:10:39;23.30;52.20
34640;DHT22;22600;48.186;11.526;2023-03-22T16:15:39;23.20;51.90
34640;DHT22;22600;48.186;11.526;2023-03-22T16:18:04;23.20;51.30
34640;DHT22;22600;48.186;11.526;2023-03-22T16:20:30;23.10;51.30
34640;DHT22;22600;48.186;11.526;2023-03-22T16:22:59;23.20;51.10
34640;DHT22;22600;48.186;11.526;2023-03-22T16:25:25;23.20;50.90
34640;DHT22;22600;48.186;11.526;2023-03-22T16:27:51;23.10;50.70
34640;DHT22;22600;48.186;11.526;2023-03-22T16:30:17;26.20;52.20
34640;DHT22;22600;48.186;11.526;2023-03-22T16:32:43;23.10;50.30
34640;DHT22;22600;48.186;11.526;2023-03-22T16:35:31;23.10;50.00